Dobrodošli na spletni strani vremenske postaje Senovo. Vse informacije so informativnega značaja, saj vremenska postaja ni del državne mreže meteoroloških postaj. OBVESTILO: Letni količini padavin navedeni na spletni strani je potrebno prišteti 98,1 mm, zaradi izgube podatkov.


Dež Od: 15-12-2017 00:00 Do: 23:59 Opozorilo za: Dež Stopnja: Rumena info button
Veter Od: 15-12-2017 00:00 Do: 17:59 Opozorilo za: Veter Stopnja: Rumena info button

Pogled proti Armezu več informacij Pogled proti Armezu


Lisca več informacij Lisca


Radar strel več informacij blitzortung!


opozorilo za Dež več informacij rain snow radar


Obiščite še:

Template documentation
and downloads

And another site



Weather Underground, zgodovina - Tekstovno

Dnevni povzetek za Avgust 9, 2017 Enote:  Metrično    Angleško   Obe
« Predhodni Dan
Naslednji Dan »
Dnevni Tedenski Mesečni Letni Po meri
  Višja: Nižja: Povprečje:
Temperatura: 33.4 °C 16.9 °C 24.8 °C
Točka rosišča: 22.5 °C 16.2 °C 19.7 °C
Vlažnost: 96 % 46 % 76 %
Hitrost vetra: 7.6 km/h 0.0 km/h 2.1 km/h
Sunki vetra: 15.8 km/h - -
Veter:- - SE
Zračni tlak: 1018.2 hPa 1014.1 hPa -
Padavine: 0.0 mm    
Historical Graphs
 
 
Tabelarni podarki za Avgust 9, 2017
Čas Temperatura Točka rosišča Zračni tlak Veter Hitrost vetra Sunki vetra Vlažnost Intenziteta padavin (urna)
00:04 19.4 °C 17.9 °C 1015.1 hPa NW 0.2 km/h 3.5 km/h 91 % 0.0 mm
00:09 19.4 °C 17.9 °C 1015.1 hPa Calm     91 % 0.0 mm
00:14 19.3 °C 17.8 °C 1015.1 hPa Calm     91 % 0.0 mm
00:19 19.3 °C 17.8 °C 1015.1 hPa Calm     91 % 0.0 mm
00:24 19.3 °C 17.9 °C 1015.1 hPa Calm     92 % 0.0 mm
00:29 19.2 °C 17.9 °C 1015.1 hPa Calm   1.4 km/h 92 % 0.0 mm
00:34 19.2 °C 17.9 °C 1016.1 hPa Calm   1.4 km/h 92 % 0.0 mm
00:39 19.1 °C 17.8 °C 1016.1 hPa Calm     92 % 0.0 mm
00:44 19.1 °C 17.8 °C 1016.1 hPa Calm     92 % 0.0 mm
00:49 19.1 °C 17.8 °C 1015.1 hPa Calm     92 % 0.0 mm
00:54 19.0 °C 17.7 °C 1015.1 hPa Calm     92 % 0.0 mm
00:59 18.9 °C 17.6 °C 1015.1 hPa Calm     92 % 0.0 mm
01:04 18.9 °C 17.6 °C 1015.1 hPa Calm     92 % 0.0 mm
01:09 18.9 °C 17.6 °C 1015.1 hPa Calm     92 % 0.0 mm
01:14 18.8 °C 17.5 °C 1015.1 hPa Calm     92 % 0.0 mm
01:19 18.8 °C 17.5 °C 1016.1 hPa Calm     92 % 0.0 mm
01:24 18.8 °C 17.5 °C 1016.1 hPa Calm     92 % 0.0 mm
01:29 18.7 °C 17.6 °C 1016.1 hPa Calm     93 % 0.0 mm
01:34 18.7 °C 17.6 °C 1015.1 hPa Calm     93 % 0.0 mm
01:39 18.6 °C 17.4 °C 1015.1 hPa Calm     93 % 0.0 mm
01:44 18.6 °C 17.4 °C 1015.1 hPa Calm     93 % 0.0 mm
01:49 18.5 °C 17.3 °C 1016.1 hPa Calm     93 % 0.0 mm
01:54 18.4 °C 17.2 °C 1016.1 hPa Calm     93 % 0.0 mm
01:59 18.4 °C 17.2 °C 1016.1 hPa Calm     93 % 0.0 mm
02:04 18.4 °C 17.2 °C 1015.1 hPa Calm     93 % 0.0 mm
02:09 18.3 °C 17.2 °C 1015.1 hPa Calm     93 % 0.0 mm
02:14 18.3 °C 17.2 °C 1015.1 hPa Calm     93 % 0.0 mm
02:19 18.2 °C 17.1 °C 1015.1 hPa Calm     93 % 0.0 mm
02:24 18.2 °C 17.1 °C 1015.1 hPa Calm     93 % 0.0 mm
02:29 18.2 °C 17.1 °C 1015.1 hPa Calm     93 % 0.0 mm
02:34 18.1 °C 16.9 °C 1016.1 hPa SW 0.3 km/h 3.2 km/h 93 % 0.0 mm
02:39 18.1 °C 16.9 °C 1016.1 hPa SW 1.0 km/h 3.2 km/h 93 % 0.0 mm
02:44 18.0 °C 16.8 °C 1016.1 hPa SW 0.6 km/h 3.2 km/h 93 % 0.0 mm
02:49 18.0 °C 17.0 °C 1016.1 hPa Calm     94 % 0.0 mm
02:54 18.0 °C 17.0 °C 1016.1 hPa Calm     94 % 0.0 mm
02:59 18.0 °C 17.0 °C 1016.1 hPa Calm     94 % 0.0 mm
03:04 17.9 °C 16.9 °C 1016.1 hPa Calm     94 % 0.0 mm
03:09 17.9 °C 16.9 °C 1016.1 hPa Calm     94 % 0.0 mm
03:14 17.9 °C 16.9 °C 1016.1 hPa Calm     94 % 0.0 mm
03:19 17.9 °C 16.9 °C 1016.1 hPa Calm     94 % 0.0 mm
03:24 17.9 °C 16.9 °C 1016.1 hPa Calm     94 % 0.0 mm
03:29 17.8 °C 16.8 °C 1016.1 hPa Calm     94 % 0.0 mm
03:35 17.7 °C 16.7 °C 1016.1 hPa Calm     94 % 0.0 mm
03:40 17.7 °C 16.7 °C 1016.1 hPa Calm     94 % 0.0 mm
03:45 17.7 °C 16.9 °C 1016.1 hPa Calm     95 % 0.0 mm
03:50 17.6 °C 16.8 °C 1016.1 hPa Calm     95 % 0.0 mm
03:55 17.6 °C 16.8 °C 1016.1 hPa Calm     95 % 0.0 mm
04:00 17.6 °C 16.8 °C 1016.1 hPa Calm     95 % 0.0 mm
04:05 17.5 °C 16.7 °C 1016.1 hPa Calm     95 % 0.0 mm
04:10 17.5 °C 16.7 °C 1016.1 hPa Calm     95 % 0.0 mm
04:20 17.4 °C 16.6 °C 1016.1 hPa Calm     95 % 0.0 mm
04:25 17.4 °C 16.6 °C 1016.1 hPa Calm     95 % 0.0 mm
04:30 17.4 °C 16.6 °C 1016.1 hPa Calm     95 % 0.0 mm
04:35 17.3 °C 16.5 °C 1016.8 hPa Calm     95 % 0.0 mm
04:40 17.3 °C 16.5 °C 1016.8 hPa Calm     95 % 0.0 mm
04:45 17.3 °C 16.5 °C 1016.8 hPa Calm     95 % 0.0 mm
04:50 17.2 °C 16.4 °C 1016.1 hPa Calm     95 % 0.0 mm
04:55 17.2 °C 16.4 °C 1016.1 hPa Calm     95 % 0.0 mm
05:00 17.2 °C 16.4 °C 1016.1 hPa Calm     95 % 0.0 mm
05:05 17.2 °C 16.4 °C 1015.1 hPa Calm     95 % 0.0 mm
05:10 17.1 °C 16.3 °C 1015.1 hPa Calm     95 % 0.0 mm
05:15 17.1 °C 16.3 °C 1015.1 hPa Calm     95 % 0.0 mm
05:17 17.1 °C 16.3 °C 1015.1 hPa Calm     95 % 0.0 mm
05:20 17.1 °C 16.3 °C 1016.8 hPa Calm     95 % 0.0 mm
05:22 17.1 °C 16.3 °C 1016.8 hPa Calm     95 % 0.0 mm
05:25 17.1 °C 16.3 °C 1016.8 hPa Calm     95 % 0.0 mm
05:30 17.0 °C 16.2 °C 1016.8 hPa Calm     95 % 0.0 mm
05:35 17.0 °C 16.2 °C 1015.1 hPa Calm     95 % 0.0 mm
05:40 17.0 °C 16.2 °C 1015.1 hPa Calm     95 % 0.0 mm
05:45 16.9 °C 16.3 °C 1015.1 hPa Calm     96 % 0.0 mm
05:55 16.9 °C 16.3 °C 1016.1 hPa Calm     96 % 0.0 mm
06:00 16.9 °C 16.3 °C 1016.1 hPa Calm     96 % 0.0 mm
06:05 16.9 °C 16.3 °C 1016.1 hPa Calm     96 % 0.0 mm
06:15 16.9 °C 16.3 °C 1016.1 hPa Calm     96 % 0.0 mm
06:20 16.9 °C 16.3 °C 1016.1 hPa Calm     96 % 0.0 mm
06:25 16.9 °C 16.3 °C 1016.1 hPa Calm     96 % 0.0 mm
06:30 17.0 °C 16.3 °C 1016.1 hPa Calm     96 % 0.0 mm
06:35 17.0 °C 16.3 °C 1016.1 hPa Calm     96 % 0.0 mm
06:40 17.1 °C 16.4 °C 1016.1 hPa Calm     96 % 0.0 mm
06:45 17.2 °C 16.6 °C 1016.1 hPa Calm     96 % 0.0 mm
06:50 17.2 °C 16.6 °C 1016.1 hPa Calm     96 % 0.0 mm
06:55 17.3 °C 16.7 °C 1016.1 hPa Calm     96 % 0.0 mm
07:00 17.5 °C 16.8 °C 1016.1 hPa Calm     96 % 0.0 mm
07:05 17.6 °C 16.9 °C 1016.8 hPa Calm     96 % 0.0 mm
07:10 17.8 °C 17.2 °C 1016.8 hPa Calm     96 % 0.0 mm
07:15 17.9 °C 17.3 °C 1016.8 hPa Calm     96 % 0.0 mm
07:20 18.0 °C 17.3 °C 1016.8 hPa Calm     96 % 0.0 mm
07:25 18.2 °C 17.6 °C 1016.8 hPa ESE 0.3 km/h 3.2 km/h 96 % 0.0 mm
07:30 18.3 °C 17.7 °C 1016.8 hPa ESE 0.5 km/h 3.2 km/h 96 % 0.0 mm
07:35 18.5 °C 17.8 °C 1016.1 hPa East 0.2 km/h 3.2 km/h 96 % 0.0 mm
07:40 18.6 °C 17.9 °C 1016.1 hPa Calm   2.6 km/h 96 % 0.0 mm
07:45 18.8 °C 18.2 °C 1016.1 hPa East 1.1 km/h 4.0 km/h 96 % 0.0 mm
07:50 18.9 °C 18.2 °C 1016.8 hPa East 1.3 km/h 4.0 km/h 96 % 0.0 mm
07:55 19.2 °C 18.4 °C 1016.8 hPa ESE 0.2 km/h 2.1 km/h 95 % 0.0 mm
08:01 19.4 °C 18.6 °C 1016.8 hPa SE 1.0 km/h 5.0 km/h 95 % 0.0 mm
08:06 19.7 °C 18.9 °C 1016.8 hPa ESE 2.1 km/h 5.0 km/h 95 % 0.0 mm
08:11 19.9 °C 19.1 °C 1016.8 hPa ESE 1.4 km/h 5.0 km/h 95 % 0.0 mm
08:16 20.2 °C 19.4 °C 1016.8 hPa South 2.1 km/h 7.6 km/h 95 % 0.0 mm
08:21 20.3 °C 19.5 °C 1016.8 hPa South 3.4 km/h 7.6 km/h 95 % 0.0 mm
08:26 20.7 °C 19.9 °C 1016.8 hPa SSW 4.0 km/h 6.1 km/h 95 % 0.0 mm
08:31 20.9 °C 19.9 °C 1016.8 hPa SSW 4.3 km/h 6.1 km/h 94 % 0.0 mm
08:36 21.1 °C 20.1 °C 1016.8 hPa SSE 3.5 km/h 6.1 km/h 94 % 0.0 mm
08:41 21.5 °C 20.3 °C 1016.8 hPa SE 2.4 km/h 6.1 km/h 93 % 0.0 mm
08:46 21.9 °C 20.7 °C 1016.8 hPa South 2.9 km/h 7.2 km/h 93 % 0.0 mm
08:51 22.3 °C 20.9 °C 1018.2 hPa SSW 4.8 km/h 7.2 km/h 92 % 0.0 mm
08:56 22.5 °C 20.9 °C 1018.2 hPa SW 4.8 km/h 6.9 km/h 91 % 0.0 mm
09:01 22.9 °C 21.3 °C 1018.2 hPa SSW 3.5 km/h 5.5 km/h 91 % 0.0 mm
09:06 23.3 °C 21.6 °C 1016.8 hPa South 2.3 km/h 5.5 km/h 90 % 0.0 mm
09:11 23.5 °C 21.6 °C 1016.8 hPa SSW 1.8 km/h 4.0 km/h 89 % 0.0 mm
09:16 23.8 °C 21.7 °C 1016.8 hPa SW 1.1 km/h 4.0 km/h 88 % 0.0 mm
09:21 24.1 °C 21.8 °C 1016.8 hPa SSE 1.3 km/h 4.7 km/h 87 % 0.0 mm
09:26 24.3 °C 21.8 °C 1016.8 hPa South 1.6 km/h 4.7 km/h 86 % 0.0 mm
09:31 24.6 °C 21.9 °C 1016.8 hPa West 1.0 km/h 4.3 km/h 85 % 0.0 mm
09:36 25.0 °C 22.1 °C 1016.8 hPa SSE 1.8 km/h 6.1 km/h 84 % 0.0 mm
09:41 25.4 °C 22.3 °C 1016.8 hPa SE 2.4 km/h 6.1 km/h 83 % 0.0 mm
09:46 25.8 °C 22.5 °C 1016.8 hPa SE 4.8 km/h 14.3 km/h 82 % 0.0 mm
09:51 26.1 °C 22.2 °C 1016.8 hPa SE 7.6 km/h 14.3 km/h 79 % 0.0 mm
09:56 26.3 °C 21.9 °C 1016.8 hPa ESE 6.3 km/h 10.5 km/h 77 % 0.0 mm
10:01 26.6 °C 22.0 °C 1016.8 hPa East 4.3 km/h 10.1 km/h 76 % 0.0 mm
10:06 26.9 °C 22.1 °C 1018.2 hPa East 4.5 km/h 9.7 km/h 75 % 0.0 mm
10:11 27.1 °C 22.1 °C 1018.2 hPa East 4.8 km/h 10.1 km/h 74 % 0.0 mm
10:16 27.3 °C 21.8 °C 1018.2 hPa East 4.5 km/h 10.1 km/h 72 % 0.0 mm
10:21 27.4 °C 20.7 °C 1018.2 hPa East 5.3 km/h 11.6 km/h 67 % 0.0 mm
10:23 27.5 °C 21.3 °C 1018.2 hPa East 5.5 km/h 11.6 km/h 69 % 0.0 mm
10:33 27.7 °C 21.0 °C 1018.2 hPa East 4.3 km/h 9.7 km/h 67 % 0.0 mm
10:38 27.9 °C 21.7 °C 1016.8 hPa East 5.3 km/h 11.9 km/h 69 % 0.0 mm
10:43 28.2 °C 21.5 °C 1016.8 hPa ESE 6.3 km/h 11.9 km/h 67 % 0.0 mm
10:46 28.2 °C 21.5 °C 1016.8 hPa East 7.4 km/h 13.0 km/h 67 % 0.0 mm
10:51 28.2 °C 21.2 °C 1016.8 hPa East 5.8 km/h 13.0 km/h 66 % 0.0 mm
10:56 28.4 °C 21.7 °C 1016.8 hPa East 4.2 km/h 12.2 km/h 67 % 0.0 mm
11:01 28.5 °C 21.3 °C 1016.8 hPa East 5.3 km/h 15.8 km/h 65 % 0.0 mm
11:06 28.6 °C 21.6 °C 1016.8 hPa ENE 5.3 km/h 15.8 km/h 66 % 0.0 mm
11:11 28.7 °C 21.7 °C 1016.8 hPa ENE 5.0 km/h 13.7 km/h 66 % 0.0 mm
11:16 28.9 °C 21.9 °C 1016.8 hPa ENE 5.8 km/h 11.1 km/h 66 % 0.0 mm
11:21 29.0 °C 21.5 °C 1016.8 hPa ENE 5.5 km/h 12.2 km/h 64 % 0.0 mm
11:26 29.1 °C 21.6 °C 1016.8 hPa ENE 4.5 km/h 12.2 km/h 64 % 0.0 mm
11:31 29.4 °C 21.6 °C 1016.8 hPa East 4.7 km/h 9.0 km/h 63 % 0.0 mm
11:36 29.5 °C 21.9 °C 1016.8 hPa ENE 6.0 km/h 11.9 km/h 64 % 0.0 mm
11:41 29.6 °C 21.8 °C 1016.8 hPa ENE 6.4 km/h 11.9 km/h 63 % 0.0 mm
11:46 29.9 °C 22.1 °C 1016.8 hPa East 5.8 km/h 14.0 km/h 63 % 0.0 mm
11:51 30.1 °C 22.0 °C 1016.8 hPa ESE 6.0 km/h 14.0 km/h 62 % 0.0 mm
11:56 30.2 °C 22.1 °C 1016.8 hPa East 5.5 km/h 12.6 km/h 62 % 0.0 mm
12:01 30.3 °C 22.2 °C 1016.8 hPa ENE 4.8 km/h 12.6 km/h 62 % 0.0 mm
12:06 30.5 °C 22.1 °C 1016.8 hPa ESE 5.6 km/h 12.2 km/h 61 % 0.0 mm
12:11 30.5 °C 21.8 °C 1016.8 hPa East 6.0 km/h 12.2 km/h 60 % 0.0 mm
12:16 30.5 °C 21.8 °C 1016.8 hPa ENE 5.3 km/h 10.5 km/h 60 % 0.0 mm
12:21 30.6 °C 21.9 °C 1016.1 hPa East 5.3 km/h 10.1 km/h 60 % 0.0 mm
12:26 30.6 °C 21.7 °C 1016.1 hPa ESE 5.3 km/h 9.7 km/h 59 % 0.0 mm
12:31 30.7 °C 21.8 °C 1016.1 hPa East 4.8 km/h 9.3 km/h 59 % 0.0 mm
12:36 30.9 °C 21.9 °C 1016.1 hPa ESE 4.7 km/h 9.3 km/h 59 % 0.0 mm
12:41 31.0 °C 22.1 °C 1016.1 hPa SE 4.7 km/h 10.5 km/h 59 % 0.0 mm
12:46 31.2 °C 21.7 °C 1016.1 hPa SE 5.8 km/h 13.0 km/h 57 % 0.0 mm
12:51 31.2 °C 21.9 °C 1016.1 hPa ESE 5.0 km/h 13.0 km/h 58 % 0.0 mm
12:56 31.5 °C 22.2 °C 1016.1 hPa ESE 4.8 km/h 11.6 km/h 58 % 0.0 mm
13:01 31.6 °C 22.1 °C 1016.1 hPa ESE 5.0 km/h 11.6 km/h 57 % 0.0 mm
13:06 31.5 °C 21.4 °C 1016.1 hPa East 4.3 km/h 9.7 km/h 55 % 0.0 mm
13:11 31.5 °C 21.7 °C 1016.1 hPa ESE 3.2 km/h 6.4 km/h 56 % 0.0 mm
13:16 31.6 °C 21.8 °C 1016.1 hPa ESE 3.9 km/h 11.9 km/h 56 % 0.0 mm
13:21 31.7 °C 21.8 °C 1016.1 hPa East 4.5 km/h 11.9 km/h 56 % 0.0 mm
13:26 31.7 °C 21.6 °C 1016.1 hPa ENE 4.2 km/h 10.1 km/h 55 % 0.0 mm
13:31 31.8 °C 21.9 °C 1016.1 hPa ENE 4.0 km/h 10.1 km/h 56 % 0.0 mm
13:32 31.8 °C 21.9 °C 1016.1 hPa ENE 4.0 km/h 10.1 km/h 56 % 0.0 mm
13:37 31.8 °C 21.9 °C 1016.1 hPa ENE 4.0 km/h 9.7 km/h 56 % 0.0 mm
13:42 31.8 °C 21.7 °C 1016.1 hPa East 5.5 km/h 9.7 km/h 55 % 0.0 mm
13:47 31.9 °C 21.7 °C 1016.1 hPa East 4.5 km/h 10.5 km/h 55 % 0.0 mm
13:52 32.0 °C 21.6 °C 1016.1 hPa ENE 4.0 km/h 10.5 km/h 54 % 0.0 mm
13:57 32.1 °C 21.6 °C 1016.1 hPa ENE 4.7 km/h 13.0 km/h 54 % 0.0 mm
14:02 32.1 °C 21.0 °C 1016.1 hPa ENE 5.8 km/h 13.0 km/h 52 % 0.0 mm
14:07 32.2 °C 21.4 °C 1015.1 hPa ENE 5.3 km/h 12.6 km/h 53 % 0.0 mm
14:12 32.3 °C 21.2 °C 1015.1 hPa East 5.1 km/h 12.6 km/h 52 % 0.0 mm
14:17 32.3 °C 21.2 °C 1015.1 hPa ENE 6.8 km/h 14.0 km/h 52 % 0.0 mm
14:22 32.4 °C 20.9 °C 1016.8 hPa ENE 5.8 km/h 14.0 km/h 51 % 0.0 mm
14:27 32.5 °C 21.1 °C 1016.8 hPa ENE 4.8 km/h 10.1 km/h 51 % 0.0 mm
14:32 32.2 °C 20.8 °C 1016.8 hPa ENE 5.6 km/h 13.0 km/h 51 % 0.0 mm
14:37 32.0 °C 20.6 °C 1015.1 hPa East 6.4 km/h 13.0 km/h 51 % 0.0 mm
14:42 32.1 °C 20.4 °C 1015.1 hPa East 6.6 km/h 14.0 km/h 50 % 0.0 mm
14:47 32.4 °C 21.3 °C 1015.1 hPa ESE 6.1 km/h 14.0 km/h 52 % 0.0 mm
14:52 32.2 °C 21.1 °C 1016.1 hPa East 5.8 km/h 14.0 km/h 52 % 0.0 mm
14:57 32.0 °C 20.9 °C 1016.1 hPa East 5.3 km/h 14.0 km/h 52 % 0.0 mm
15:02 31.8 °C 21.1 °C 1016.1 hPa East 4.2 km/h 14.0 km/h 53 % 0.0 mm
15:07 31.7 °C 20.9 °C 1015.1 hPa ENE 5.1 km/h 12.6 km/h 53 % 0.0 mm
15:12 31.5 °C 21.1 °C 1015.1 hPa NE 5.0 km/h 12.6 km/h 54 % 0.0 mm
15:17 31.6 °C 21.4 °C 1015.1 hPa ENE 2.9 km/h 9.0 km/h 55 % 0.0 mm
15:22 32.0 °C 21.2 °C 1016.1 hPa ENE 2.7 km/h 6.4 km/h 53 % 0.0 mm
15:27 32.4 °C 21.6 °C 1016.1 hPa East 3.9 km/h 9.7 km/h 53 % 0.0 mm
15:32 32.6 °C 21.4 °C 1016.1 hPa East 3.9 km/h 9.7 km/h 52 % 0.0 mm
15:37 32.7 °C 21.2 °C 1015.1 hPa ENE 3.1 km/h 8.7 km/h 51 % 0.0 mm
15:42 32.8 °C 21.0 °C 1015.1 hPa NE 3.5 km/h 9.3 km/h 50 % 0.0 mm
15:48 32.8 °C 21.3 °C 1015.1 hPa NE 2.3 km/h 4.7 km/h 51 % 0.0 mm
15:53 32.9 °C 21.1 °C 1015.1 hPa East 5.0 km/h 7.9 km/h 50 % 0.0 mm
15:58 33.0 °C 20.6 °C 1015.1 hPa East 4.7 km/h 10.1 km/h 48 % 0.0 mm
16:03 33.1 °C 20.6 °C 1016.1 hPa ENE 4.8 km/h 10.1 km/h 48 % 0.0 mm
16:08 33.2 °C 20.0 °C 1016.1 hPa ENE 4.8 km/h 9.7 km/h 46 % 0.0 mm
16:13 33.1 °C 20.3 °C 1016.1 hPa ENE 4.3 km/h 9.0 km/h 47 % 0.0 mm
16:18 33.2 °C 20.7 °C 1015.1 hPa ENE 3.9 km/h 8.7 km/h 48 % 0.0 mm
16:23 33.3 °C 20.4 °C 1015.1 hPa East 4.0 km/h 10.1 km/h 47 % 0.0 mm
16:28 33.3 °C 20.4 °C 1015.1 hPa East 5.1 km/h 10.1 km/h 47 % 0.0 mm
16:33 33.3 °C 20.4 °C 1015.1 hPa ENE 5.6 km/h 13.7 km/h 47 % 0.0 mm
16:35 33.2 °C 20.4 °C 1015.1 hPa ENE 5.6 km/h 13.7 km/h 47 % 0.0 mm
16:40 33.2 °C 20.7 °C 1015.1 hPa East 5.5 km/h 13.7 km/h 48 % 0.0 mm
16:45 33.2 °C 20.7 °C 1015.1 hPa East 4.2 km/h 9.7 km/h 48 % 0.0 mm
16:50 33.3 °C 20.8 °C 1015.1 hPa ENE 2.9 km/h 7.6 km/h 48 % 0.0 mm
16:55 33.4 °C 20.9 °C 1015.1 hPa ESE 4.3 km/h 9.7 km/h 48 % 0.0 mm
17:00 33.4 °C 21.2 °C 1015.1 hPa ESE 5.1 km/h 9.7 km/h 49 % 0.0 mm
17:05 33.3 °C 21.1 °C 1014.1 hPa ENE 4.2 km/h 7.6 km/h 49 % 0.0 mm
17:10 33.3 °C 21.1 °C 1014.1 hPa NE 3.1 km/h 7.6 km/h 49 % 0.0 mm
17:15 33.3 °C 21.1 °C 1014.1 hPa ENE 2.1 km/h 8.7 km/h 49 % 0.0 mm
17:20 33.4 °C 21.2 °C 1014.1 hPa East 2.6 km/h 8.7 km/h 49 % 0.0 mm
17:25 33.4 °C 20.9 °C 1014.1 hPa East 3.2 km/h 9.0 km/h 48 % 0.0 mm
17:30 33.4 °C 20.9 °C 1014.1 hPa East 4.3 km/h 8.7 km/h 48 % 0.0 mm
17:35 33.3 °C 21.1 °C 1015.1 hPa East 4.8 km/h 9.7 km/h 49 % 0.0 mm
17:40 33.2 °C 21.1 °C 1015.1 hPa ENE 5.3 km/h 9.7 km/h 49 % 0.0 mm
17:45 33.1 °C 20.9 °C 1015.1 hPa ENE 5.5 km/h 10.5 km/h 49 % 0.0 mm
17:50 32.9 °C 20.8 °C 1014.1 hPa ENE 5.6 km/h 10.5 km/h 49 % 0.0 mm
17:55 32.7 °C 20.6 °C 1014.1 hPa ENE 4.7 km/h 9.3 km/h 49 % 0.0 mm
18:00 32.4 °C 20.7 °C 1014.1 hPa NE 4.0 km/h 9.3 km/h 50 % 0.0 mm
18:05 32.3 °C 21.2 °C 1015.1 hPa NE 2.6 km/h 7.9 km/h 52 % 0.0 mm
18:10 32.1 °C 21.0 °C 1015.1 hPa ENE 1.6 km/h 6.1 km/h 52 % 0.0 mm
18:15 31.9 °C 21.1 °C 1015.1 hPa East 2.7 km/h 7.9 km/h 53 % 0.0 mm
18:20 31.8 °C 21.1 °C 1015.1 hPa East 3.5 km/h 7.9 km/h 53 % 0.0 mm
18:25 31.6 °C 20.8 °C 1015.1 hPa East 3.9 km/h 9.7 km/h 53 % 0.0 mm
18:30 31.4 °C 21.0 °C 1015.1 hPa East 3.5 km/h 9.7 km/h 54 % 0.0 mm
18:35 31.3 °C 21.2 °C 1015.1 hPa East 2.3 km/h 9.0 km/h 55 % 0.0 mm
18:40 31.1 °C 21.0 °C 1015.1 hPa East 1.4 km/h 5.8 km/h 55 % 0.0 mm
18:45 30.9 °C 21.4 °C 1015.1 hPa ESE 1.8 km/h 5.8 km/h 57 % 0.0 mm
18:50 30.7 °C 21.5 °C 1015.1 hPa ESE 2.4 km/h 6.4 km/h 58 % 0.0 mm
18:55 30.6 °C 21.4 °C 1015.1 hPa ESE 1.6 km/h 6.4 km/h 58 % 0.0 mm
19:00 30.4 °C 21.8 °C 1015.1 hPa East 1.1 km/h 4.3 km/h 60 % 0.0 mm
19:05 30.1 °C 21.8 °C 1015.1 hPa NE 1.8 km/h 4.3 km/h 61 % 0.0 mm
19:10 29.8 °C 21.7 °C 1015.1 hPa North 1.1 km/h 2.6 km/h 62 % 0.0 mm
19:15 29.5 °C 21.7 °C 1015.1 hPa North 0.3 km/h 2.6 km/h 63 % 0.0 mm
19:20 29.2 °C 21.7 °C 1015.1 hPa NNW 0.3 km/h 5.5 km/h 64 % 0.0 mm
19:25 28.9 °C 21.9 °C 1015.1 hPa NW 1.8 km/h 5.5 km/h 66 % 0.0 mm
19:30 28.6 °C 21.6 °C 1015.1 hPa NW 2.6 km/h 5.0 km/h 66 % 0.0 mm
19:35 28.4 °C 21.7 °C 1015.1 hPa NW 1.1 km/h 3.5 km/h 67 % 0.0 mm
19:41 28.1 °C 21.6 °C 1015.1 hPa North 0.2 km/h 2.1 km/h 68 % 0.0 mm
19:46 27.8 °C 21.6 °C 1015.1 hPa NNW 0.6 km/h 4.3 km/h 69 % 0.0 mm
19:51 27.7 °C 21.7 °C 1015.1 hPa NW 1.9 km/h 4.7 km/h 70 % 0.0 mm
19:56 27.4 °C 21.4 °C 1015.1 hPa NW 1.9 km/h 4.7 km/h 70 % 0.0 mm
20:01 27.2 °C 21.5 °C 1015.1 hPa NW 0.5 km/h 4.7 km/h 71 % 0.0 mm
20:06 27.0 °C 21.5 °C 1015.1 hPa Calm     72 % 0.0 mm
20:11 26.8 °C 21.3 °C 1015.1 hPa Calm     72 % 0.0 mm
20:16 26.5 °C 21.5 °C 1015.1 hPa Calm     74 % 0.0 mm
20:21 26.3 °C 21.3 °C 1014.1 hPa Calm     74 % 0.0 mm
20:26 26.1 °C 21.3 °C 1014.1 hPa NW 0.8 km/h 4.7 km/h 75 % 0.0 mm
20:31 25.9 °C 21.1 °C 1014.1 hPa NW 1.0 km/h 4.7 km/h 75 % 0.0 mm
20:36 25.7 °C 21.2 °C 1014.1 hPa NNW 0.2 km/h 2.6 km/h 76 % 0.0 mm
20:41 25.6 °C 21.1 °C 1014.1 hPa NW 0.8 km/h 4.0 km/h 76 % 0.0 mm
20:46 25.4 °C 21.1 °C 1014.1 hPa NW 1.0 km/h 4.0 km/h 77 % 0.0 mm
20:51 25.3 °C 21.0 °C 1015.1 hPa NW 0.5 km/h 4.0 km/h 77 % 0.0 mm
20:56 25.1 °C 21.0 °C 1015.1 hPa NW 0.5 km/h 4.0 km/h 78 % 0.0 mm
21:01 24.9 °C 21.0 °C 1015.1 hPa Calm   1.8 km/h 79 % 0.0 mm
21:06 24.8 °C 20.9 °C 1014.1 hPa Calm   2.6 km/h 79 % 0.0 mm
21:11 24.6 °C 20.7 °C 1014.1 hPa Calm   2.6 km/h 79 % 0.0 mm
21:16 24.4 °C 20.7 °C 1014.1 hPa Calm   1.8 km/h 80 % 0.0 mm
21:21 24.3 °C 20.6 °C 1015.1 hPa SW 1.1 km/h 5.5 km/h 80 % 0.0 mm
21:26 24.2 °C 20.6 °C 1015.1 hPa SW 2.3 km/h 5.5 km/h 80 % 0.0 mm
21:31 24.0 °C 20.3 °C 1015.1 hPa WNW 1.8 km/h 5.0 km/h 80 % 0.0 mm
21:36 23.9 °C 20.6 °C 1015.1 hPa NNW 1.0 km/h 4.7 km/h 82 % 0.0 mm
21:41 23.9 °C 20.6 °C 1015.1 hPa North 0.2 km/h   82 % 0.0 mm
21:46 23.8 °C 20.6 °C 1015.1 hPa Calm     82 % 0.0 mm
21:51 23.6 °C 20.3 °C 1015.1 hPa WSW 0.6 km/h 4.0 km/h 82 % 0.0 mm
21:56 23.5 °C 20.4 °C 1015.1 hPa WSW 0.6 km/h 4.0 km/h 83 % 0.0 mm
22:01 23.4 °C 20.3 °C 1015.1 hPa North 0.2 km/h   83 % 0.0 mm
22:06 23.3 °C 20.4 °C 1015.1 hPa Calm     84 % 0.0 mm
22:11 23.1 °C 20.2 °C 1015.1 hPa NNE 0.2 km/h 2.1 km/h 84 % 0.0 mm
22:13 23.1 °C 20.4 °C 1015.1 hPa NNE 0.2 km/h 2.1 km/h 85 % 0.0 mm
22:18 23.0 °C 20.3 °C 1015.1 hPa West 0.6 km/h 4.0 km/h 85 % 0.0 mm
22:23 22.9 °C 20.4 °C 1015.1 hPa WSW 0.5 km/h 4.0 km/h 86 % 0.0 mm
22:28 22.8 °C 20.3 °C 1015.1 hPa Calm   2.1 km/h 86 % 0.0 mm
22:33 22.7 °C 20.2 °C 1015.1 hPa Calm   2.1 km/h 86 % 0.0 mm
22:38 22.6 °C 20.3 °C 1015.1 hPa Calm     87 % 0.0 mm
22:43 22.5 °C 20.2 °C 1015.1 hPa North 0.2 km/h 2.1 km/h 87 % 0.0 mm
22:48 22.4 °C 20.1 °C 1015.1 hPa North 0.2 km/h 2.1 km/h 87 % 0.0 mm
22:53 22.4 °C 20.1 °C 1015.1 hPa Calm     87 % 0.0 mm
22:58 22.3 °C 20.1 °C 1015.1 hPa Calm     87 % 0.0 mm
23:03 22.2 °C 20.1 °C 1015.1 hPa Calm     88 % 0.0 mm
23:08 22.2 °C 19.9 °C 1015.1 hPa Calm     87 % 0.0 mm
23:13 22.1 °C 20.0 °C 1015.1 hPa Calm     88 % 0.0 mm
23:18 22.1 °C 20.0 °C 1015.1 hPa Calm     88 % 0.0 mm
23:23 22.0 °C 19.9 °C 1015.1 hPa Calm     88 % 0.0 mm
23:28 22.0 °C 19.9 °C 1015.1 hPa Calm     88 % 0.0 mm
23:33 21.9 °C 20.0 °C 1015.1 hPa Calm     89 % 0.0 mm
23:38 21.8 °C 19.9 °C 1015.1 hPa Calm     89 % 0.0 mm
23:43 21.7 °C 19.8 °C 1015.1 hPa Calm     89 % 0.0 mm
23:48 21.6 °C 19.7 °C 1015.1 hPa Calm     89 % 0.0 mm
23:53 21.6 °C 19.7 °C 1015.1 hPa Calm     89 % 0.0 mm
23:58 21.5 °C 19.6 °C 1015.1 hPa Calm     89 % 0.0 mm
Vremenska postaja Senovo
Podatki zbrani iz Weather Underground - 3 mb

Script developed by  Jim McMurry - jmcmurry@mwt.net Adapted for the template by  Wim van der Kuil - Leuven-Template.eu

Vremenski podatki so objavljeni na:

WeatherCloud

Weather Underground

AWEKAS

HAMweather, WeatherForYou, PWS Weather

MapView

Geostik

Slovenia weather network

Oprema, ki se uporablja:

Vremenski program
Cumulus

Cumulus